Time;durP1;ratioP1;P1;durP2;ratioP2;P2;SDS_P1;SDS_P2;PMS_P1;PMS_P2;Temp;Humidity;BMP_temperature;BMP_pressure;BME280_temperature;BME280_humidity;BME280_pressure;Samples;Min_cycle;Max_cycle;Signal;HPM_P1;HPM_P2
2023/05/03 00:04:36;;;;;;;12.10;3.83;;;;;;;9.80;51.32;101410.34;10384941;28;20070;-59
2023/05/03 00:09:38;;;;;;;9.15;3.80;;;;;;;9.77;51.39;101403.41;10383797;28;20057;-58
2023/05/03 00:14:39;;;;;;;10.02;3.40;;;;;;;9.68;51.43;101397.09;10382171;28;20804;-59
2023/05/03 00:19:41;;;;;;;9.43;3.55;;;;;;;9.65;51.49;101391.16;10385685;28;20057;-58
2023/05/03 00:24:42;;;;;;;10.25;3.72;;;;;;;9.58;51.52;101387.34;10380414;28;20046;-58
2023/05/03 00:29:45;;;;;;;7.65;3.75;;;;;;;9.55;51.83;101393.84;10382206;28;20057;-57
2023/05/03 00:34:46;;;;;;;8.30;4.28;;;;;;;9.56;52.01;101386.63;10380000;28;20067;-58
2023/05/03 00:39:48;;;;;;;11.80;3.72;;;;;;;9.54;51.96;101381.44;10385215;28;20140;-58
2023/05/03 00:44:49;;;;;;;10.27;3.83;;;;;;;9.48;51.84;101384.69;10388080;28;20060;-58
2023/05/03 00:49:51;;;;;;;6.68;3.83;;;;;;;9.36;52.02;101378.63;10383563;28;20140;-58
2023/05/03 00:54:52;;;;;;;8.18;3.80;;;;;;;9.35;52.13;101373.41;10382462;28;20111;-59
2023/05/03 00:59:56;;;;;;;12.15;4.10;;;;;;;9.28;52.20;101363.25;10380812;28;20137;-58
2023/05/03 01:04:57;;;;;;;9.35;3.78;;;;;;;9.25;52.71;101362.69;10427745;28;20064;-60
2023/05/03 01:10:25;;;;;;;7.40;3.42;;;;;;;9.28;52.62;101360.56;10406934;28;20051;-61
2023/05/03 01:15:40;;;;;;;8.25;3.28;;;;;;;9.24;52.60;101358.28;10429478;28;20053;-59
2023/05/03 01:20:46;;;;;;;8.38;2.72;;;;;;;9.26;52.13;101365.22;10405715;22;1248399;-91
2023/05/03 01:25:52;;;;;;;7.85;3.85;;;;;;;9.22;52.17;101360.25;10314212;28;20059;-91
2023/05/03 01:31:00;;;;;;;8.98;4.10;;;;;;;9.17;52.40;101357.19;10314084;28;20057;-91
2023/05/03 01:36:11;;;;;;;8.65;3.78;;;;;;;9.08;53.06;101353.50;10297227;28;20057;-90
2023/05/03 01:41:17;;;;;;;9.88;3.33;;;;;;;9.01;52.77;101357.75;10336531;28;20058;-91
2023/05/03 01:46:23;;;;;;;9.93;3.90;;;;;;;8.82;52.91;101362.09;10346029;28;20081;-90
2023/05/03 01:51:28;;;;;;;13.88;4.60;;;;;;;8.81;53.32;101347.00;10346219;28;20058;-90
2023/05/03 01:56:30;;;;;;;7.10;3.90;;;;;;;8.80;53.95;101347.97;10436735;23;20042;-61
2023/05/03 02:01:31;;;;;;;7.78;3.78;;;;;;;8.67;53.85;101360.81;10368220;28;20109;-61
2023/05/03 02:06:33;;;;;;;11.15;4.72;;;;;;;8.56;53.60;101351.06;10365314;28;20035;-61
2023/05/03 02:11:34;;;;;;;8.23;3.38;;;;;;;8.54;54.42;101353.03;10372791;28;20058;-61
2023/05/03 02:42:49;;;;;;;10.45;5.25;;;;;;;8.22;54.82;101388.84;10209349;29;20039;-61
2023/05/03 02:47:50;;;;;;;21.25;6.13;;;;;;;8.19;54.60;101397.16;10237390;29;20070;-61
2023/05/03 03:10:47;;;;;;;11.02;3.88;;;;;;;7.92;54.54;101370.97;10511682;23;20045;31
2023/05/03 03:15:48;;;;;;;14.00;5.28;;;;;;;7.87;54.65;101378.53;10390951;28;20042;-62
2023/05/03 03:20:50;;;;;;;8.82;3.90;;;;;;;7.84;54.85;101382.34;10391255;28;20050;-61
2023/05/03 03:25:51;;;;;;;13.68;5.22;;;;;;;7.83;55.63;101375.28;10397253;28;20046;-61
2023/05/03 03:30:53;;;;;;;8.80;5.13;;;;;;;7.75;55.59;101377.78;10604834;22;20061;-61
2023/05/03 03:35:54;;;;;;;9.02;3.25;;;;;;;7.71;54.95;101369.16;10454753;28;20050;-61
2023/05/03 03:40:56;;;;;;;10.07;4.20;;;;;;;7.65;55.69;101371.53;10458556;28;20053;-61
2023/05/03 03:45:57;;;;;;;11.00;4.25;;;;;;;7.59;55.69;101367.53;10458591;28;20038;-61
2023/05/03 03:50:59;;;;;;;7.85;4.03;;;;;;;7.56;55.53;101378.50;12411237;22;20065;-60
2023/05/03 03:56:00;;;;;;;11.85;4.80;;;;;;;7.42;56.46;101379.66;10437979;28;20076;-60
2023/05/03 04:01:02;;;;;;;9.02;4.10;;;;;;;7.32;56.25;101376.91;10378851;28;20056;-66
2023/05/03 04:06:04;;;;;;;10.88;5.32;;;;;;;7.31;56.15;101380.59;10378801;28;20079;-68
2023/05/03 04:11:11;;;;;;;6.88;3.95;;;;;;;7.34;56.49;101382.16;10382175;28;20054;-68
2023/05/03 04:16:12;;;;;;;12.37;5.03;;;;;;;7.30;56.09;101384.22;10385215;28;20045;-66
2023/05/03 04:21:14;;;;;;;9.73;4.78;;;;;;;7.37;56.26;101389.94;10382646;28;20347;-68
2023/05/03 04:26:16;;;;;;;9.68;4.60;;;;;;;7.46;55.84;101399.00;10361635;28;20053;-67
2023/05/03 04:31:31;;;;;;;10.02;4.45;;;;;;;7.51;56.02;101402.97;10381295;28;20057;-66
2023/05/03 04:36:33;;;;;;;9.25;4.07;;;;;;;7.55;56.42;101409.75;10382804;28;20053;-65
2023/05/03 04:41:34;;;;;;;10.48;4.85;;;;;;;7.55;57.03;101417.78;10377542;28;20089;-68
2023/05/03 04:46:36;;;;;;;9.93;4.10;;;;;;;7.68;56.16;101406.03;10383843;28;20076;-67
2023/05/03 04:51:37;;;;;;;8.85;5.32;;;;;;;7.78;56.84;101409.66;10381604;28;20152;-66
2023/05/03 04:56:39;;;;;;;11.88;5.03;;;;;;;7.89;56.39;101406.88;10381536;28;20132;-67
2023/05/03 05:01:40;;;;;;;12.55;5.47;;;;;;;8.01;56.29;101404.13;10382882;28;20055;-68
2023/05/03 05:06:42;;;;;;;13.13;4.25;;;;;;;8.05;55.99;101408.22;10381114;28;20548;-69
2023/05/03 05:11:43;;;;;;;10.15;5.18;;;;;;;8.12;56.84;101412.91;10381614;28;20061;-68
2023/05/03 05:16:45;;;;;;;13.27;5.00;;;;;;;8.27;56.56;101409.88;10373602;28;20140;-68
2023/05/03 05:21:47;;;;;;;9.13;5.57;;;;;;;8.47;56.08;101409.00;10380813;28;20081;-69
2023/05/03 05:26:48;;;;;;;9.82;4.30;;;;;;;8.61;56.27;101417.63;10379013;28;20049;-68
2023/05/03 05:31:50;;;;;;;10.48;4.93;;;;;;;8.79;56.52;101415.13;10379495;28;20121;-69
2023/05/03 05:36:51;;;;;;;9.75;4.35;;;;;;;8.95;56.05;101418.16;10381990;28;20527;-69
2023/05/03 05:41:53;;;;;;;12.18;5.68;;;;;;;9.18;55.94;101407.13;10367398;28;20046;-65
2023/05/03 05:46:54;;;;;;;11.52;4.88;;;;;;;9.25;56.11;101417.16;10386487;28;20073;-69
2023/05/03 05:51:56;;;;;;;14.88;4.47;;;;;;;9.34;56.60;101404.75;10389745;28;20058;-70
2023/05/03 05:56:57;;;;;;;8.73;3.97;;;;;;;9.49;56.05;101400.63;10389753;28;20086;-67
2023/05/03 06:01:59;;;;;;;11.95;3.97;;;;;;;9.59;56.25;101402.47;10385128;28;20073;-67
2023/05/03 06:07:00;;;;;;;7.15;4.00;;;;;;;9.66;55.53;101408.97;10388696;28;20148;-68
2023/05/03 06:12:02;;;;;;;10.43;4.65;;;;;;;9.77;55.56;101399.88;10385844;28;20180;-68
2023/05/03 06:17:03;;;;;;;11.18;3.53;;;;;;;9.90;55.44;101403.13;10383300;28;20584;-68
2023/05/03 06:22:05;;;;;;;10.85;4.45;;;;;;;10.04;54.91;101402.63;10394099;28;20060;-68
2023/05/03 06:27:07;;;;;;;9.23;4.07;;;;;;;10.15;54.78;101404.31;10387049;28;20100;-69
2023/05/03 06:32:08;;;;;;;9.40;3.72;;;;;;;10.30;54.30;101405.53;10386818;28;20080;-68
2023/05/03 06:37:10;;;;;;;6.10;3.30;;;;;;;10.38;54.31;101420.91;10384447;28;20133;-71
2023/05/03 06:42:11;;;;;;;6.85;3.20;;;;;;;10.47;54.01;101411.97;10387567;28;20088;-70
2023/05/03 06:47:13;;;;;;;6.75;3.63;;;;;;;10.64;53.50;101415.72;10385633;28;20057;-68
2023/05/03 06:52:15;;;;;;;6.00;3.40;;;;;;;10.87;53.37;101409.91;10391112;28;20054;-68
2023/05/03 06:57:16;;;;;;;8.13;3.35;;;;;;;11.01;52.97;101406.69;10389087;28;20108;-70
2023/05/03 07:02:18;;;;;;;7.57;3.38;;;;;;;11.16;52.84;101393.56;10381160;28;20109;-70
2023/05/03 07:07:19;;;;;;;17.98;4.47;;;;;;;11.47;52.10;101393.13;10367560;28;20431;-70
2023/05/03 07:12:26;;;;;;;3.97;2.67;;;;;;;11.73;51.82;101390.50;10383400;28;20049;-72
2023/05/03 07:17:27;;;;;;;5.00;2.38;;;;;;;11.93;51.22;101387.59;10382299;28;20112;-69
2023/05/03 07:22:29;;;;;;;5.30;2.53;;;;;;;12.00;50.76;101394.88;10400294;28;20063;-66
2023/05/03 07:27:30;;;;;;;5.95;2.70;;;;;;;12.14;50.34;101401.53;10373012;28;20049;-66
2023/05/03 07:32:32;;;;;;;11.13;3.53;;;;;;;12.28;49.84;101397.38;10399790;28;20112;-66
2023/05/03 07:37:33;;;;;;;5.93;2.90;;;;;;;12.37;49.48;101401.81;10389042;28;20057;-66
2023/05/03 07:42:35;;;;;;;5.35;3.10;;;;;;;12.56;49.15;101398.03;10387557;28;20151;-67
2023/05/03 07:47:38;;;;;;;7.65;2.42;;;;;;;12.67;48.66;101394.16;10384688;28;20089;-68
2023/05/03 07:52:42;;;;;;;5.63;2.80;;;;;;;12.75;48.13;101399.59;10383697;28;20057;-68
2023/05/03 07:57:44;;;;;;;13.85;3.10;;;;;;;12.74;48.27;101389.81;10383306;28;20704;-68
2023/05/03 08:02:45;;;;;;;11.05;3.25;;;;;;;12.89;48.12;101379.22;10390382;28;20057;-67
2023/05/03 08:07:47;;;;;;;5.78;3.10;;;;;;;13.03;47.92;101370.47;10393306;28;20060;-69
2023/05/03 08:12:48;;;;;;;6.00;2.95;;;;;;;13.17;47.80;101370.81;10409867;28;20080;-69
2023/05/03 08:17:49;;;;;;;5.63;2.60;;;;;;;13.38;47.04;101367.66;10399421;28;20053;-69
2023/05/03 08:22:55;;;;;;;4.60;3.17;;;;;;;13.55;47.23;101376.59;10377999;28;20046;-67
2023/05/03 08:27:57;;;;;;;9.48;3.20;;;;;;;13.69;46.30;101379.44;10390555;28;20061;-68
2023/05/03 08:32:58;;;;;;;6.45;2.72;;;;;;;13.74;46.52;101359.16;10390667;28;20477;-68
2023/05/03 08:38:00;;;;;;;9.85;3.47;;;;;;;13.68;46.09;101366.97;10398661;28;20049;-68
2023/05/03 08:43:07;;;;;;;6.03;2.80;;;;;;;13.74;45.52;101365.41;10395949;28;20060;-68
2023/05/03 08:48:08;;;;;;;7.85;3.75;;;;;;;13.96;45.35;101363.00;10396692;28;20057;-67
2023/05/03 08:53:10;;;;;;;7.25;3.03;;;;;;;14.17;44.75;101371.38;10396978;28;20046;-68
2023/05/03 08:58:12;;;;;;;11.70;3.05;;;;;;;14.35;44.64;101370.28;10402535;28;20072;-67
2023/05/03 09:03:13;;;;;;;6.57;3.08;;;;;;;14.47;44.34;101372.44;10416447;28;20049;-67
2023/05/03 09:08:15;;;;;;;6.25;3.42;;;;;;;14.37;44.30;101377.22;10403929;28;20064;-67
2023/05/03 09:13:17;;;;;;;7.38;3.10;;;;;;;14.62;43.99;101371.72;10408160;28;20256;-68
2023/05/03 09:18:20;;;;;;;5.07;2.55;;;;;;;14.83;43.58;101369.25;10408061;28;20078;-69
2023/05/03 09:23:24;;;;;;;5.15;2.92;;;;;;;14.94;43.17;101361.72;10404745;28;20116;-68
2023/05/03 09:28:26;;;;;;;5.45;2.78;;;;;;;15.27;42.88;101346.91;10408500;28;20112;-69
2023/05/03 09:33:28;;;;;;;8.00;3.20;;;;;;;15.48;42.51;101356.19;10420870;28;20037;-69
2023/05/03 09:38:32;;;;;;;5.03;2.58;;;;;;;15.76;42.20;101344.81;10413910;28;20041;-69
2023/05/03 09:43:37;;;;;;;7.53;3.08;;;;;;;16.06;41.69;101341.03;10411371;28;20050;-68
2023/05/03 09:48:39;;;;;;;5.22;3.20;;;;;;;16.19;41.08;101334.09;10413044;28;20184;-67
2023/05/03 09:53:41;;;;;;;4.22;2.80;;;;;;;16.19;41.19;101331.41;10425687;28;20061;-68
2023/05/03 09:58:42;;;;;;;6.78;3.05;;;;;;;16.30;40.74;101330.94;10409592;28;20056;-67
2023/05/03 10:03:49;;;;;;;8.75;3.28;;;;;;;16.56;40.66;101321.41;10435584;28;20054;-67
2023/05/03 10:09:04;;;;;;;5.33;3.17;;;;;;;16.77;40.37;101315.19;10426347;28;20062;-67
2023/05/03 10:14:06;;;;;;;6.50;2.95;;;;;;;17.11;39.83;101309.06;10431797;28;20050;-68
2023/05/03 10:19:18;;;;;;;6.03;2.67;;;;;;;17.36;39.28;101295.88;10434490;28;20060;-67
2023/05/03 10:24:19;;;;;;;10.23;3.28;;;;;;;17.78;38.75;101304.13;10432980;28;20022;-67
2023/05/03 10:29:30;;;;;;;6.10;3.20;;;;;;;18.21;37.76;101303.94;10432194;28;20041;-67
2023/05/03 10:34:34;;;;;;;5.63;2.30;;;;;;;18.49;37.29;101301.09;10437092;28;20040;-67
2023/05/03 10:39:36;;;;;;;6.03;2.55;;;;;;;18.85;36.63;101305.41;10442401;28;20057;-68
2023/05/03 10:44:39;;;;;;;6.55;2.50;;;;;;;19.29;36.58;101292.22;10444070;28;20105;-68
2023/05/03 10:49:41;;;;;;;5.20;2.80;;;;;;;19.59;35.98;101298.91;10428084;28;20042;-68
2023/05/03 10:54:43;;;;;;;2.88;2.15;;;;;;;19.79;35.10;101292.59;10438585;28;20038;-68
2023/05/03 10:59:46;;;;;;;5.43;3.10;;;;;;;19.75;35.35;101294.09;10415469;28;20565;-71
2023/05/03 11:04:51;;;;;;;4.78;2.78;;;;;;;19.41;35.51;101288.66;10400568;28;20042;-69
2023/05/03 11:09:52;;;;;;;8.48;3.70;;;;;;;19.61;35.07;101280.44;10388603;28;20053;-68
2023/05/03 11:14:54;;;;;;;7.22;2.63;;;;;;;19.70;35.10;101275.56;10390044;28;20488;-68
2023/05/03 11:19:55;;;;;;;6.97;3.20;;;;;;;19.90;35.03;101267.34;10430082;28;20050;-65
2023/05/03 11:24:56;;;;;;;3.47;2.15;;;;;;;20.02;34.68;101259.34;10413008;28;20049;-65
2023/05/03 11:29:58;;;;;;;4.82;2.15;;;;;;;20.18;34.21;101258.88;10426349;28;20053;-65
2023/05/03 11:35:02;;;;;;;5.93;2.50;;;;;;;20.29;33.99;101249.13;10425215;28;20072;-66
2023/05/03 11:40:06;;;;;;;3.72;2.08;;;;;;;20.54;33.35;101240.19;10442114;28;20029;-66
2023/05/03 11:45:08;;;;;;;5.45;2.47;;;;;;;20.85;33.34;101238.50;10431593;28;20101;-66
2023/05/03 11:50:10;;;;;;;3.72;2.15;;;;;;;20.92;32.92;101252.97;10423233;28;20068;-66
2023/05/03 11:55:12;;;;;;;4.90;1.65;;;;;;;20.92;32.69;101251.06;10426213;28;20064;-67
2023/05/03 12:00:17;;;;;;;2.38;1.60;;;;;;;21.22;31.83;101236.72;10414176;28;20076;-66
2023/05/03 12:05:20;;;;;;;6.38;2.40;;;;;;;21.12;31.96;101214.50;10411232;28;20121;-66
2023/05/03 12:10:31;;;;;;;5.07;1.40;;;;;;;21.74;31.32;101218.09;10430903;28;20041;-66
2023/05/03 12:15:36;;;;;;;4.95;2.03;;;;;;;22.34;30.30;101200.88;10424293;28;20041;-66
2023/05/03 12:20:38;;;;;;;1.85;1.27;;;;;;;22.65;30.00;101204.44;10438615;28;20107;-66
2023/05/03 12:25:43;;;;;;;2.85;1.05;;;;;;;23.01;29.70;101201.72;10434498;28;20103;-66
2023/05/03 12:30:45;;;;;;;2.90;1.45;;;;;;;23.01;28.89;101194.34;10429194;28;20057;-69
2023/05/03 12:46:48;;;;;;;3.95;1.10;;;;;;;23.73;28.39;101179.47;10815419;23;20045;-92
2023/05/03 12:51:51;;;;;;;3.67;1.42;;;;;;;23.83;28.15;101187.94;10291237;28;20162;-72
2023/05/03 12:57:13;;;;;;;3.63;1.40;;;;;;;24.00;27.10;101173.44;10260656;28;20072;-71
2023/05/03 13:02:16;;;;;;;2.65;1.45;;;;;;;23.75;27.27;101177.31;10263200;28;20089;-71
2023/05/03 13:07:40;;;;;;;4.75;1.52;;;;;;;24.23;26.67;101154.09;10262614;28;20051;-72
2023/05/03 13:12:43;;;;;;;4.20;1.13;;;;;;;24.39;26.72;101148.84;10268507;28;20113;-74
2023/05/03 13:17:45;;;;;;;11.43;2.85;;;;;;;24.31;26.33;101147.38;10260735;28;20138;-73
2023/05/03 13:22:49;;;;;;;2.00;1.20;;;;;;;24.22;26.52;101135.94;10259666;28;20059;-71
2023/05/03 13:27:52;;;;;;;3.83;1.10;;;;;;;24.86;26.10;101129.28;10272361;28;20728;-70
2023/05/03 13:32:53;;;;;;;3.25;1.35;;;;;;;24.72;26.49;101113.16;10298953;28;20153;-72
2023/05/03 13:37:54;;;;;;;2.55;1.13;;;;;;;25.04;25.77;101120.78;10301007;28;20073;-71
2023/05/03 13:42:56;;;;;;;3.10;1.17;;;;;;;25.06;25.46;101120.50;10299363;28;20495;-72
2023/05/03 13:47:57;;;;;;;5.13;1.52;;;;;;;25.48;25.07;101112.56;10298854;28;20097;-73
2023/05/03 13:53:19;;;;;;;6.75;1.00;;;;;;;26.10;24.89;101097.53;10301935;28;20518;-73
2023/05/03 13:58:20;;;;;;;2.70;0.90;;;;;;;27.12;24.43;101096.63;10300471;28;20105;-72
2023/05/03 14:03:22;;;;;;;5.60;1.02;;;;;;;28.19;22.77;101087.03;10299638;28;20670;-72
2023/05/03 14:08:24;;;;;;;3.67;1.08;;;;;;;30.05;20.97;101081.41;10309630;28;20058;-73
2023/05/03 14:13:26;;;;;;;4.60;1.20;;;;;;;31.63;19.94;101069.75;10309712;28;20046;-74
2023/05/03 14:18:31;;;;;;;3.95;1.02;;;;;;;31.74;19.61;101070.44;10301487;28;20046;-72
2023/05/03 14:23:33;;;;;;;4.78;0.98;;;;;;;32.00;18.99;101070.88;10305906;28;20564;-73
2023/05/03 14:28:35;;;;;;;4.32;0.80;;;;;;;30.92;19.20;101057.59;10307174;28;20082;-74
2023/05/03 14:33:36;;;;;;;3.45;0.77;;;;;;;29.93;20.49;101058.78;10309635;28;20101;-72
2023/05/03 14:38:37;;;;;;;1.45;0.63;;;;;;;28.90;20.66;101047.38;10301597;28;20141;-73
2023/05/03 14:43:39;;;;;;;1.30;0.60;;;;;;;28.74;21.40;101034.69;10304877;28;20047;-75
2023/05/03 14:48:40;;;;;;;2.47;0.70;;;;;;;28.90;21.93;101035.47;10305890;28;20058;-72
2023/05/03 14:53:42;;;;;;;1.33;0.80;;;;;;;29.29;21.01;101026.47;10334239;28;20054;-70
2023/05/03 14:58:43;;;;;;;4.00;1.20;;;;;;;29.48;20.47;101027.44;10327869;28;20063;-68
2023/05/03 15:03:45;;;;;;;1.80;0.70;;;;;;;29.39;20.55;101021.69;10330118;28;20061;-69
2023/05/03 15:08:46;;;;;;;1.92;0.73;;;;;;;29.37;20.60;101018.38;10345520;28;20081;-65
2023/05/03 15:13:48;;;;;;;4.10;0.60;;;;;;;28.99;20.85;101009.69;10320196;28;20058;-64
2023/05/03 15:18:50;;;;;;;2.45;0.70;;;;;;;28.26;20.94;101008.22;10312602;28;20201;-63
2023/05/03 15:23:52;;;;;;;3.08;0.90;;;;;;;27.95;21.16;101009.34;10313220;28;20055;-64
2023/05/03 15:28:54;;;;;;;1.83;0.50;;;;;;;28.22;21.53;101011.78;10319119;28;20047;-66
2023/05/03 15:33:55;;;;;;;1.55;0.60;;;;;;;28.56;21.00;101003.75;10319527;28;20058;-66
2023/05/03 15:38:57;;;;;;;2.72;0.70;;;;;;;28.70;20.26;101003.16;10324075;28;20502;-66
2023/05/03 15:44:03;;;;;;;1.90;0.80;;;;;;;28.32;20.87;100986.91;10323008;28;20054;-66
2023/05/03 15:49:05;;;;;;;1.83;0.60;;;;;;;27.81;21.29;100986.94;10331907;28;20062;-65
2023/05/03 15:54:06;;;;;;;4.13;0.68;;;;;;;27.82;21.12;100978.34;10351867;28;20054;-66
2023/05/03 15:59:08;;;;;;;1.58;0.50;;;;;;;27.45;21.90;100976.66;10342505;28;20130;-65
2023/05/03 16:04:10;;;;;;;1.98;0.60;;;;;;;27.40;21.11;100984.94;10340685;28;20126;-62
2023/05/03 16:09:11;;;;;;;2.80;0.38;;;;;;;27.37;21.85;100982.75;10326488;28;20046;-63
2023/05/03 16:14:13;;;;;;;1.38;0.40;;;;;;;27.40;21.45;100970.31;10322748;28;20128;-63
2023/05/03 16:19:15;;;;;;;2.85;0.45;;;;;;;27.45;21.22;100968.38;10314727;28;20069;-61
2023/05/03 16:24:17;;;;;;;2.17;0.40;;;;;;;27.66;21.55;100969.22;10308014;28;20066;-63
2023/05/03 16:29:18;;;;;;;2.33;0.40;;;;;;;27.56;21.25;100974.75;10310470;28;20059;-61
2023/05/03 16:34:21;;;;;;;0.95;0.45;;;;;;;27.52;21.34;100964.53;10315117;28;20066;-62
2023/05/03 16:39:22;;;;;;;1.95;0.65;;;;;;;27.35;21.20;100959.25;10317795;28;20082;-64
2023/05/03 16:44:23;;;;;;;2.97;0.40;;;;;;;27.03;21.41;100965.75;10315385;28;20046;-63
2023/05/03 16:49:25;;;;;;;2.60;0.50;;;;;;;26.97;21.29;100964.91;10306481;28;20509;-63
2023/05/03 16:54:27;;;;;;;1.88;0.47;;;;;;;26.82;21.54;100965.69;10316114;28;20058;-63
2023/05/03 16:59:28;;;;;;;1.55;0.30;;;;;;;26.78;21.86;100959.06;10322989;28;20393;-63
2023/05/03 17:04:30;;;;;;;2.38;0.35;;;;;;;26.82;21.81;100957.41;10311075;28;20046;-63
2023/05/03 17:09:31;;;;;;;1.73;0.40;;;;;;;26.86;21.69;100957.72;10314604;28;20415;-64
2023/05/03 17:14:32;;;;;;;3.88;0.38;;;;;;;26.68;21.45;100951.56;10314833;28;20423;-65
2023/05/03 17:19:34;;;;;;;3.85;0.40;;;;;;;26.60;22.33;100946.56;10309143;28;20076;-64
2023/05/03 17:24:35;;;;;;;3.33;0.60;;;;;;;26.52;22.19;100944.28;10310709;28;20069;-66
2023/05/03 17:29:37;;;;;;;2.78;0.50;;;;;;;26.48;22.12;100944.00;10304266;28;20109;-63
2023/05/03 17:34:38;;;;;;;1.73;0.40;;;;;;;26.44;22.50;100951.16;10308887;28;20112;-64
2023/05/03 17:39:40;;;;;;;2.35;0.40;;;;;;;26.23;22.21;100954.88;10305608;28;20065;-63
2023/05/03 17:44:41;;;;;;;1.25;0.35;;;;;;;25.91;22.53;100944.75;10314033;28;20046;-64
2023/05/03 17:49:43;;;;;;;3.35;0.30;;;;;;;25.60;22.48;100949.97;10288759;28;20066;-63
2023/05/03 17:54:45;;;;;;;1.20;0.25;;;;;;;25.00;23.13;100951.81;10279208;28;20106;-62
2023/05/03 17:59:47;;;;;;;3.97;0.40;;;;;;;24.28;23.81;100944.50;10282349;28;20169;-63
2023/05/03 18:04:48;;;;;;;2.90;0.30;;;;;;;23.56;24.84;100943.34;10252450;28;20105;-64
2023/05/03 18:09:51;;;;;;;1.35;0.40;;;;;;;23.10;24.97;100946.06;10263454;28;20541;-64
2023/05/03 18:14:58;;;;;;;1.45;0.80;;;;;;;22.56;25.73;100950.97;10253169;28;20061;-62
2023/05/03 18:20:00;;;;;;;1.88;0.47;;;;;;;22.03;26.24;100952.75;10264801;28;20059;-63
2023/05/03 18:25:05;;;;;;;1.30;0.98;;;;;;;21.69;26.81;100954.41;10257501;28;20067;-62
2023/05/03 18:30:09;;;;;;;1.48;0.50;;;;;;;21.15;27.28;100957.88;10255570;28;20055;-64
2023/05/03 18:35:10;;;;;;;1.13;0.50;;;;;;;20.73;27.91;100968.69;10265969;28;20047;-64
2023/05/03 18:40:12;;;;;;;2.33;0.40;;;;;;;20.37;28.42;100974.97;10280836;28;20051;-63
2023/05/03 18:45:14;;;;;;;5.97;1.00;;;;;;;19.98;28.78;100975.13;10275610;28;20150;-61
2023/05/03 18:50:15;;;;;;;2.15;0.45;;;;;;;19.68;29.53;100971.31;10294075;28;20042;-61
2023/05/03 18:55:16;;;;;;;1.23;0.40;;;;;;;19.37;29.80;100982.03;10312045;28;20054;-63
2023/05/03 19:00:18;;;;;;;1.45;0.50;;;;;;;19.12;30.38;100981.09;10310301;28;20121;-62
2023/05/03 19:05:19;;;;;;;5.57;1.52;;;;;;;18.88;30.68;100985.38;10311880;28;20404;-61
2023/05/03 19:10:21;;;;;;;2.90;0.50;;;;;;;18.70;30.82;100995.06;10309903;28;20077;-58
2023/05/03 19:15:22;;;;;;;2.60;0.57;;;;;;;18.46;31.22;100995.75;10311549;28;20058;-60
2023/05/03 19:20:24;;;;;;;0.95;0.63;;;;;;;18.28;31.89;101004.56;10312195;28;20038;-58
2023/05/03 19:25:25;;;;;;;4.07;0.70;;;;;;;18.04;32.35;101007.69;10307233;28;20046;-58
2023/05/03 19:30:27;;;;;;;3.20;0.85;;;;;;;17.80;32.68;101009.13;10314900;28;21036;-58
2023/05/03 19:35:28;;;;;;;2.28;0.50;;;;;;;17.65;33.34;101013.91;10314423;28;20085;-58
2023/05/03 19:40:30;;;;;;;1.85;0.60;;;;;;;17.44;33.22;101004.06;10311036;28;20518;-58
2023/05/03 19:45:32;;;;;;;3.10;0.68;;;;;;;17.17;33.41;101009.38;10293472;28;20869;-59
2023/05/03 19:50:34;;;;;;;5.28;1.00;;;;;;;17.00;34.21;101003.50;10307246;28;20050;-58
2023/05/03 19:55:36;;;;;;;2.00;0.55;;;;;;;16.79;34.54;101011.72;10294024;28;20054;-58
2023/05/03 20:00:38;;;;;;;3.35;0.50;;;;;;;16.59;34.89;101008.88;10309961;28;20139;-58
2023/05/03 20:05:40;;;;;;;4.32;0.55;;;;;;;16.40;35.42;101013.97;10300746;28;20061;-57
2023/05/03 20:10:41;;;;;;;3.22;0.50;;;;;;;16.31;35.69;101009.75;10302063;28;20089;-57
2023/05/03 20:15:46;;;;;;;5.43;0.52;;;;;;;16.18;35.90;101015.88;10305284;28;20546;-57
2023/05/03 20:20:48;;;;;;;4.40;0.57;;;;;;;16.03;36.45;101016.00;10306321;28;20683;-59
2023/05/03 20:25:49;;;;;;;1.30;0.63;;;;;;;15.92;36.89;101010.25;10302136;28;20133;-58
2023/05/03 20:30:50;;;;;;;2.60;0.70;;;;;;;15.81;36.93;101000.75;10299564;28;20050;-57
2023/05/03 20:35:52;;;;;;;5.32;0.75;;;;;;;15.71;37.45;101000.22;10303373;28;20433;-58
2023/05/03 20:40:54;;;;;;;7.10;0.70;;;;;;;15.62;37.50;100999.47;10298147;28;20655;-58
2023/05/03 20:45:56;;;;;;;1.17;0.70;;;;;;;15.51;38.02;100989.19;10306846;28;20042;-58
2023/05/03 20:50:59;;;;;;;3.58;0.68;;;;;;;15.42;38.21;100994.72;10276409;28;20145;-58
2023/05/03 20:56:05;;;;;;;1.95;0.70;;;;;;;15.32;38.57;100991.47;10264626;28;20046;-58
2023/05/03 21:01:06;;;;;;;3.33;1.05;;;;;;;15.20;38.93;100999.25;10256907;28;20098;-58
2023/05/03 21:06:08;;;;;;;1.17;0.60;;;;;;;15.05;39.67;100999.28;10261366;28;20171;-59
2023/05/03 21:11:09;;;;;;;1.85;0.70;;;;;;;14.86;40.05;101000.72;10264982;28;20462;-58
2023/05/03 21:16:11;;;;;;;2.50;1.02;;;;;;;14.78;40.72;100999.97;10240417;28;20126;-58
2023/05/03 21:21:12;;;;;;;3.47;1.25;;;;;;;14.67;40.98;101003.97;10255829;28;20543;-58
2023/05/03 21:26:14;;;;;;;3.28;1.10;;;;;;;14.46;41.56;101013.66;10256961;28;20452;-58
2023/05/03 21:31:16;;;;;;;2.95;1.25;;;;;;;14.32;42.00;101008.25;10260278;28;20134;-58
2023/05/03 21:36:17;;;;;;;3.58;1.15;;;;;;;14.23;42.17;101002.06;10261962;28;20051;-59
2023/05/03 21:41:19;;;;;;;6.53;1.83;;;;;;;14.11;42.65;101001.66;10260474;28;20079;-58
2023/05/03 21:46:20;;;;;;;4.38;1.02;;;;;;;13.97;43.16;101003.31;10266343;28;20570;-58
2023/05/03 21:51:22;;;;;;;3.25;0.93;;;;;;;13.86;43.40;100998.31;10299328;28;20046;-58
2023/05/03 21:56:23;;;;;;;5.05;0.80;;;;;;;13.75;43.93;101001.47;10299513;28;20117;-58
2023/05/03 22:01:25;;;;;;;4.35;1.00;;;;;;;13.61;44.58;100992.28;10301113;28;20477;-59
2023/05/03 22:06:26;;;;;;;2.92;1.20;;;;;;;13.47;44.88;100981.22;10294635;28;20070;-59
2023/05/03 22:11:28;;;;;;;3.58;0.90;;;;;;;13.38;45.23;100984.16;10292988;28;20118;-59
2023/05/03 22:16:29;;;;;;;2.90;1.02;;;;;;;13.23;45.34;100987.59;10298378;28;20158;-59
2023/05/03 22:21:31;;;;;;;1.83;1.00;;;;;;;13.08;45.71;100986.66;10297897;28;20042;-60
2023/05/03 22:26:32;;;;;;;4.28;1.13;;;;;;;12.99;45.93;100991.25;10302428;28;20482;-59
2023/05/03 22:31:34;;;;;;;2.95;1.40;;;;;;;12.89;46.38;100988.78;10306052;28;20777;-58
2023/05/03 22:36:35;;;;;;;2.53;1.17;;;;;;;12.80;47.02;100986.31;10305601;28;20486;-58
2023/05/03 22:41:37;;;;;;;1.92;1.17;;;;;;;12.70;47.33;100983.81;10307244;28;20454;-58
2023/05/03 22:46:39;;;;;;;3.90;1.10;;;;;;;12.62;47.45;100978.44;10305263;28;20129;-59
2023/05/03 22:51:40;;;;;;;5.68;1.58;;;;;;;12.54;47.78;100981.16;10303482;28;20132;-58
2023/05/03 22:56:41;;;;;;;2.58;1.25;;;;;;;12.40;47.72;100978.16;10302448;28;20158;-59
2023/05/03 23:01:44;;;;;;;4.13;1.85;;;;;;;12.34;47.82;100978.84;10300112;28;20462;-59
2023/05/03 23:06:46;;;;;;;3.80;2.22;;;;;;;12.30;48.03;100975.66;10302201;28;20059;-58
2023/05/03 23:11:47;;;;;;;4.05;2.00;;;;;;;12.19;48.03;100975.19;10306291;28;20070;-58
2023/05/03 23:16:49;;;;;;;6.25;1.35;;;;;;;12.07;48.13;100982.78;10303274;28;20145;-59
2023/05/03 23:21:50;;;;;;;2.03;1.00;;;;;;;11.86;48.44;100978.69;10300730;28;20054;-59
2023/05/03 23:26:51;;;;;;;2.50;1.13;;;;;;;11.82;48.64;100971.97;10307012;28;20544;-59
2023/05/03 23:31:53;;;;;;;3.53;1.58;;;;;;;11.80;48.80;100968.59;10307425;28;20082;-59
2023/05/03 23:36:55;;;;;;;3.47;1.45;;;;;;;11.71;48.97;100978.56;10306050;28;20509;-58
2023/05/03 23:41:57;;;;;;;3.40;1.67;;;;;;;11.61;49.36;100967.09;10304935;28;20520;-58
2023/05/03 23:46:59;;;;;;;4.40;1.48;;;;;;;11.49;49.86;100960.34;10283201;28;20067;-59
2023/05/03 23:52:00;;;;;;;2.35;1.25;;;;;;;11.30;50.38;100962.34;10303394;28;20145;-59
2023/05/03 23:57:02;;;;;;;5.40;1.35;;;;;;;11.22;50.70;100962.34;10303945;28;20066;-60
